createdAt,value
2018-11-07T00:00:15.760Z,9.312
2018-11-07T00:03:15.509Z,8.087
2018-11-07T00:06:15.888Z,10.850
2018-11-07T00:09:15.100Z,8.700
2018-11-07T00:12:15.206Z,10.462
2018-11-07T00:15:15.405Z,9.037
2018-11-07T00:18:15.670Z,13.887
2018-11-07T00:21:15.081Z,17.075
2018-11-07T00:24:15.623Z,8.800
2018-11-07T00:27:15.282Z,7.738
2018-11-07T00:30:15.406Z,4.900
2018-11-07T00:33:15.610Z,6.863
2018-11-07T00:36:15.922Z,9.425
2018-11-07T00:39:15.609Z,6.700
2018-11-07T00:42:15.222Z,11.488
2018-11-07T00:45:15.070Z,9.650
2018-11-07T00:48:15.253Z,8.762
2018-11-07T00:51:15.546Z,8.113
2018-11-07T00:54:15.866Z,5.762
2018-11-07T00:57:15.354Z,5.075
2018-11-07T01:00:15.681Z,6.112
2018-11-07T01:03:15.816Z,5.150
2018-11-07T01:06:15.037Z,3.037
2018-11-07T01:09:20.238Z,4.200
2018-11-07T01:12:15.103Z,5.838
2018-11-07T01:15:15.138Z,2.487
2018-11-07T01:18:15.320Z,2.738
2018-11-07T01:21:15.477Z,4.463
2018-11-07T01:24:15.614Z,2.388
2018-11-07T01:27:15.802Z,6.225
2018-11-07T01:30:15.036Z,4.700
2018-11-07T01:33:14.916Z,4.225
2018-11-07T01:36:15.920Z,5.088
2018-11-07T01:39:15.800Z,5.900
2018-11-07T01:42:15.106Z,4.225
2018-11-07T01:45:15.220Z,5.588
2018-11-07T01:48:15.633Z,4.287
2018-11-07T01:51:14.936Z,4.688
2018-11-07T01:54:15.993Z,5.725
2018-11-07T01:57:15.197Z,5.438
2018-11-07T02:00:15.380Z,5.075
2018-11-07T02:03:15.012Z,4.613
2018-11-07T02:06:15.470Z,2.825
2018-11-07T02:09:15.522Z,3.087
2018-11-07T02:12:15.683Z,7.387
2018-11-07T02:15:15.016Z,4.312
2018-11-07T02:18:15.976Z,3.925
2018-11-07T02:21:15.235Z,7.725
2018-11-07T02:24:15.458Z,5.188
2018-11-07T02:27:15.665Z,10.300
2018-11-07T02:30:15.101Z,11.288
2018-11-07T02:33:15.461Z,7.412
2018-11-07T02:36:15.744Z,8.200
2018-11-07T02:39:14.896Z,5.850
2018-11-07T02:42:15.951Z,9.925
2018-11-07T02:45:15.266Z,7.912
2018-11-07T02:48:15.687Z,6.725
2018-11-07T02:51:15.862Z,4.775
2018-11-07T02:54:15.390Z,7.013
2018-11-07T02:57:15.373Z,5.037
2018-11-07T03:00:15.747Z,7.675
2018-11-07T03:03:15.108Z,12.162
2018-11-07T03:06:15.325Z,7.500
2018-11-07T03:09:15.835Z,6.025
2018-11-07T03:12:15.076Z,4.188
2018-11-07T03:15:15.129Z,8.900
2018-11-07T03:18:15.648Z,3.362
2018-11-07T03:21:15.930Z,4.012
2018-11-07T03:24:15.275Z,4.312
2018-11-07T03:27:15.379Z,2.650
2018-11-07T03:30:15.628Z,4.287
2018-11-07T03:33:15.791Z,7.950
2018-11-07T03:36:15.264Z,4.125
2018-11-07T03:39:15.420Z,2.962
2018-11-07T03:42:15.732Z,7.537
2018-11-07T03:45:15.037Z,7.025
2018-11-07T03:48:15.589Z,8.238
2018-11-07T03:51:15.492Z,5.400
2018-11-07T03:54:15.840Z,9.663
2018-11-07T03:57:15.371Z,5.125
2018-11-07T04:00:15.813Z,4.213
2018-11-07T04:03:15.314Z,4.138
2018-11-07T04:06:15.663Z,1.663
2018-11-07T04:09:15.276Z,6.963
2018-11-07T04:12:15.547Z,8.575
2018-11-07T04:15:15.155Z,8.263
2018-11-07T04:18:15.684Z,9.900
2018-11-07T04:21:15.946Z,7.263
2018-11-07T04:24:15.076Z,7.900
2018-11-07T04:27:15.008Z,4.938
2018-11-07T04:30:15.415Z,5.087
2018-11-07T04:33:15.851Z,9.350
2018-11-07T04:36:15.276Z,3.438
2018-11-07T04:39:15.989Z,7.050
2018-11-07T04:42:15.536Z,8.700
2018-11-07T04:45:15.528Z,9.600
2018-11-07T04:48:15.671Z,3.275
2018-11-07T04:51:15.094Z,3.700
2018-11-07T04:54:15.204Z,2.900
2018-11-07T04:57:15.302Z,4.987
2018-11-07T05:00:15.797Z,1.863
2018-11-07T05:03:15.435Z,3.650
2018-11-07T05:06:15.714Z,8.325
2018-11-07T05:09:15.012Z,7.175
2018-11-07T05:12:15.119Z,8.550
2018-11-07T05:15:15.206Z,4.062
2018-11-07T05:18:15.216Z,4.850
2018-11-07T05:21:15.024Z,3.562
2018-11-07T05:24:15.144Z,9.275
2018-11-07T05:27:15.600Z,6.387
2018-11-07T05:30:15.833Z,7.263
2018-11-07T05:33:15.639Z,7.337
2018-11-07T05:36:15.100Z,9.850
2018-11-07T05:39:15.152Z,13.425
2018-11-07T05:42:15.322Z,6.787
2018-11-07T05:45:16.041Z,9.600
2018-11-07T05:48:15.894Z,7.713
2018-11-07T05:51:15.842Z,4.663
2018-11-07T05:54:16.289Z,7.688
2018-11-07T05:57:15.016Z,8.762
2018-11-07T06:00:16.140Z,6.775
2018-11-07T06:03:15.723Z,7.788
2018-11-07T06:06:15.382Z,7.125
2018-11-07T06:09:15.880Z,4.963
2018-11-07T06:12:15.041Z,4.975
2018-11-07T06:15:15.053Z,5.700
2018-11-07T06:18:15.584Z,7.662
2018-11-07T06:21:15.109Z,9.675
2018-11-07T06:24:15.137Z,4.487
2018-11-07T06:27:15.278Z,16.150
2018-11-07T06:30:15.703Z,25.025
2018-11-07T06:33:15.082Z,9.350
2018-11-07T06:36:15.058Z,4.975
2018-11-07T06:39:14.996Z,14.675
2018-11-07T06:42:15.065Z,11.400
2018-11-07T06:45:15.999Z,6.312
2018-11-07T06:48:15.318Z,9.100
2018-11-07T06:51:15.877Z,10.650
2018-11-07T06:54:15.417Z,10.388
2018-11-07T06:57:15.952Z,7.800
2018-11-07T07:00:15.271Z,5.013
2018-11-07T07:03:15.447Z,8.887
2018-11-07T07:06:15.859Z,9.863
2018-11-07T07:09:15.705Z,9.537
2018-11-07T07:12:15.102Z,10.388
2018-11-07T07:15:15.523Z,7.338
2018-11-07T07:18:15.235Z,10.650
2018-11-07T07:21:15.819Z,11.537
2018-11-07T07:24:15.190Z,7.188
2018-11-07T07:27:15.331Z,9.462
2018-11-07T07:30:16.140Z,7.237
2018-11-07T07:33:15.306Z,10.088
2018-11-07T07:36:15.036Z,6.725
2018-11-07T07:39:15.252Z,10.012
2018-11-07T07:42:15.320Z,7.763
2018-11-07T07:45:15.708Z,11.162
2018-11-07T07:48:15.415Z,7.013
2018-11-07T07:51:15.817Z,8.125
2018-11-07T07:54:15.278Z,13.100
2018-11-07T07:57:15.198Z,5.150
2018-11-07T08:00:15.263Z,13.213
2018-11-07T08:03:15.718Z,5.362
2018-11-07T08:06:15.025Z,14.450
2018-11-07T08:09:15.111Z,9.475
2018-11-07T08:12:15.419Z,9.037
2018-11-07T08:15:15.947Z,11.562
2018-11-07T08:18:15.339Z,13.938
2018-11-07T08:21:15.598Z,9.450
2018-11-07T08:24:15.840Z,8.262
2018-11-07T08:27:15.454Z,13.950
2018-11-07T08:30:15.329Z,14.750
2018-11-07T08:33:14.945Z,11.150
2018-11-07T08:36:17.073Z,18.362
2018-11-07T08:39:16.017Z,12.050
2018-11-07T08:42:15.539Z,21.238
2018-11-07T08:45:15.406Z,25.150
2018-11-07T08:48:15.053Z,18.350
2018-11-07T08:51:15.250Z,14.200
2018-11-07T08:54:15.464Z,28.300
2018-11-07T08:57:15.005Z,32.775
2018-11-07T09:00:15.055Z,25.975
2018-11-07T09:03:15.213Z,14.762
2018-11-07T09:06:15.314Z,27.663
2018-11-07T09:09:15.264Z,17.600
2018-11-07T09:12:15.570Z,20.863
2018-11-07T09:15:15.030Z,26.737
2018-11-07T09:18:15.254Z,11.863
2018-11-07T09:21:15.543Z,13.113
2018-11-07T09:24:15.987Z,17.650
2018-11-07T09:27:15.118Z,18.812
2018-11-07T09:30:15.594Z,14.488
2018-11-07T09:33:15.176Z,19.800
2018-11-07T09:36:15.158Z,15.637
2018-11-07T09:39:15.367Z,19.575
2018-11-07T09:42:15.735Z,24.913
2018-11-07T09:45:16.003Z,14.750
2018-11-07T09:48:15.777Z,13.962
2018-11-07T09:51:15.504Z,19.413
2018-11-07T09:54:15.794Z,15.438
2018-11-07T09:57:15.034Z,22.100
2018-11-07T10:00:15.446Z,20.550
2018-11-07T10:03:15.776Z,20.012
2018-11-07T10:06:15.297Z,16.100
2018-11-07T10:09:15.918Z,15.087
2018-11-07T10:12:15.376Z,18.525
2018-11-07T10:15:15.246Z,13.525
2018-11-07T10:18:15.600Z,18.337
2018-11-07T10:21:15.045Z,23.400
2018-11-07T10:24:15.292Z,16.225
2018-11-07T10:27:15.342Z,14.613
2018-11-07T10:30:16.211Z,15.350
2018-11-07T10:33:15.549Z,13.863
2018-11-07T10:36:15.155Z,15.613
2018-11-07T10:39:15.125Z,19.462
2018-11-07T10:42:15.506Z,16.137
2018-11-07T10:45:15.732Z,12.663
2018-11-07T10:48:15.137Z,13.600
2018-11-07T10:51:15.556Z,14.175
2018-11-07T10:54:15.858Z,7.612
2018-11-07T10:57:15.287Z,14.238
2018-11-07T11:00:15.152Z,17.312
2018-11-07T11:03:15.825Z,11.863
2018-11-07T11:06:15.519Z,13.375
2018-11-07T11:09:15.076Z,12.650
2018-11-07T11:12:15.264Z,13.950
2018-11-07T11:15:15.804Z,11.887
2018-11-07T11:18:15.577Z,10.125
2018-11-07T11:21:15.007Z,12.550
2018-11-07T11:24:14.957Z,11.812
2018-11-07T11:27:15.125Z,9.188
2018-11-07T11:30:15.035Z,7.562
2018-11-07T11:33:15.057Z,7.825
2018-11-07T11:36:15.012Z,9.625
2018-11-07T11:39:15.222Z,6.662
2018-11-07T11:42:15.394Z,11.125
2018-11-07T11:45:15.750Z,9.463
2018-11-07T11:48:15.135Z,11.762
2018-11-07T11:51:15.383Z,13.212
2018-11-07T11:54:15.553Z,11.838
2018-11-07T11:57:15.251Z,7.263
2018-11-07T12:00:15.219Z,11.550
2018-11-07T12:03:15.076Z,7.963
2018-11-07T12:06:15.043Z,12.212
2018-11-07T12:09:15.628Z,10.575
2018-11-07T12:12:15.918Z,18.025
2018-11-07T12:15:15.592Z,10.825
2018-11-07T12:18:15.908Z,10.400
2018-11-07T12:21:15.107Z,8.962
2018-11-07T12:24:15.238Z,14.300
2018-11-07T12:27:15.379Z,5.312
2018-11-07T12:30:15.160Z,12.950
2018-11-07T12:33:15.341Z,10.438
2018-11-07T12:36:15.500Z,5.950
2018-11-07T12:39:15.361Z,8.412
2018-11-07T12:42:15.517Z,8.088
2018-11-07T12:45:15.050Z,7.037
2018-11-07T12:48:15.184Z,6.050
2018-11-07T12:51:15.344Z,6.775
2018-11-07T12:54:15.392Z,5.600
2018-11-07T12:57:15.688Z,6.675
2018-11-07T13:00:15.632Z,6.025
2018-11-07T13:03:15.316Z,2.938
2018-11-07T13:06:15.427Z,6.575
2018-11-07T13:09:15.412Z,4.025
2018-11-07T13:12:15.003Z,6.637
2018-11-07T13:15:15.154Z,4.938
2018-11-07T13:18:15.556Z,5.200
2018-11-07T13:21:15.900Z,6.237
2018-11-07T13:24:15.420Z,5.775
2018-11-07T13:27:15.077Z,5.725
2018-11-07T13:30:14.947Z,4.250
2018-11-07T13:33:15.321Z,4.062
2018-11-07T13:36:15.647Z,2.725
2018-11-07T13:39:16.455Z,3.375
2018-11-07T13:42:15.343Z,2.400
2018-11-07T13:45:15.584Z,2.775
2018-11-07T13:48:15.393Z,2.425
2018-11-07T13:51:15.677Z,3.062
2018-11-07T13:54:15.234Z,2.775
2018-11-07T13:57:15.291Z,1.800
2018-11-07T14:00:15.245Z,2.200
2018-11-07T14:03:15.442Z,4.287
2018-11-07T14:06:15.276Z,3.100
2018-11-07T14:09:15.938Z,3.263
2018-11-07T14:12:15.296Z,1.850
2018-11-07T14:15:15.330Z,1.362
2018-11-07T14:18:15.537Z,1.350
2018-11-07T14:21:15.224Z,1.750
2018-11-07T14:24:15.177Z,1.700
2018-11-07T14:27:15.329Z,2.513
2018-11-07T14:30:15.385Z,4.888
2018-11-07T14:33:15.215Z,2.450
2018-11-07T14:36:15.470Z,2.850
2018-11-07T14:39:15.654Z,3.937
2018-11-07T14:42:14.989Z,3.137
2018-11-07T14:45:15.319Z,7.588
2018-11-07T14:48:15.364Z,5.338
2018-11-07T14:51:15.458Z,7.912
2018-11-07T14:54:15.959Z,6.338
2018-11-07T14:57:15.777Z,3.975
2018-11-07T15:00:15.234Z,3.388
2018-11-07T15:03:15.370Z,2.875
2018-11-07T15:06:15.616Z,3.800
2018-11-07T15:09:15.084Z,8.225
2018-11-07T15:12:15.217Z,6.850
2018-11-07T15:15:16.017Z,3.250
2018-11-07T15:18:15.473Z,4.787
2018-11-07T15:21:15.417Z,3.288
2018-11-07T15:24:15.533Z,4.425
2018-11-07T15:27:15.814Z,5.500
2018-11-07T15:30:15.104Z,8.988
2018-11-07T15:33:15.277Z,3.250
2018-11-07T15:36:15.424Z,3.562
2018-11-07T15:39:15.765Z,4.888
2018-11-07T15:42:15.491Z,4.213
2018-11-07T15:45:15.052Z,2.712
2018-11-07T15:48:15.157Z,3.425
2018-11-07T15:51:15.223Z,3.400
2018-11-07T15:54:15.250Z,4.025
2018-11-07T15:57:15.579Z,3.175
2018-11-07T16:00:15.663Z,2.737
2018-11-07T16:03:15.886Z,2.388
2018-11-07T16:06:15.830Z,2.188
2018-11-07T16:09:15.417Z,1.162
2018-11-07T16:12:15.544Z,0.800
2018-11-07T16:15:15.618Z,1.325
2018-11-07T16:18:15.932Z,1.613
2018-11-07T16:21:15.082Z,1.363
2018-11-07T16:24:15.217Z,1.312
2018-11-07T16:27:15.631Z,1.650
2018-11-07T16:30:15.185Z,2.150
2018-11-07T16:33:15.255Z,0.975
2018-11-07T16:36:15.062Z,1.725
2018-11-07T16:39:15.381Z,1.462
2018-11-07T16:42:15.370Z,0.988
2018-11-07T16:45:15.837Z,3.262
2018-11-07T16:48:15.761Z,1.062
2018-11-07T16:51:15.555Z,1.663
2018-11-07T16:54:15.428Z,2.763
2018-11-07T16:57:15.918Z,1.913
2018-11-07T17:00:15.178Z,1.400
2018-11-07T17:03:15.313Z,0.925
2018-11-07T17:06:15.312Z,0.225
2018-11-07T17:09:15.448Z,1.650
2018-11-07T17:12:15.830Z,1.250
2018-11-07T17:15:15.473Z,1.500
2018-11-07T17:18:15.854Z,0.838
2018-11-07T17:21:14.972Z,1.825
2018-11-07T17:24:15.251Z,0.787
2018-11-07T17:27:16.004Z,0.975
2018-11-07T17:30:15.486Z,0.750
2018-11-07T17:33:15.324Z,1.987
2018-11-07T17:36:15.601Z,1.988
2018-11-07T17:39:15.754Z,0.500
2018-11-07T17:42:15.802Z,0.637
2018-11-07T17:45:15.717Z,0.838
2018-11-07T17:48:15.903Z,0.925
2018-11-07T17:51:15.854Z,1.000
2018-11-07T17:54:15.502Z,0.688
2018-11-07T17:57:15.794Z,1.775
2018-11-07T18:00:15.091Z,3.625
2018-11-07T18:03:15.906Z,1.625
2018-11-07T18:06:15.272Z,2.225
2018-11-07T18:09:15.624Z,0.800
2018-11-07T18:12:15.063Z,0.713
2018-11-07T18:15:15.317Z,0.738
2018-11-07T18:18:15.779Z,0.188
2018-11-07T18:21:15.678Z,0.750
2018-11-07T18:24:15.670Z,0.863
2018-11-07T18:27:16.142Z,0.838
2018-11-07T18:30:15.513Z,1.062
2018-11-07T18:33:15.839Z,0.550
2018-11-07T18:36:15.068Z,2.013
2018-11-07T18:39:15.265Z,1.175
2018-11-07T18:42:15.378Z,1.812
2018-11-07T18:45:15.692Z,1.300
2018-11-07T18:48:15.695Z,0.725
2018-11-07T18:51:15.989Z,1.337
2018-11-07T18:54:15.395Z,1.250
2018-11-07T18:57:15.484Z,3.062
2018-11-07T19:00:15.510Z,0.475
2018-11-07T19:03:15.483Z,1.438
2018-11-07T19:06:15.609Z,0.613
2018-11-07T19:09:15.909Z,0.863
2018-11-07T19:12:15.082Z,1.500
2018-11-07T19:15:15.676Z,0.325
2018-11-07T19:18:15.925Z,3.100
2018-11-07T19:21:15.454Z,1.488
2018-11-07T19:24:15.568Z,0.688
2018-11-07T19:27:15.554Z,0.775
2018-11-07T19:30:15.854Z,0.375
2018-11-07T19:33:15.264Z,0.700
2018-11-07T19:36:15.333Z,0.400
2018-11-07T19:39:15.557Z,0.812
2018-11-07T19:42:15.651Z,0.238
2018-11-07T19:45:15.795Z,1.087
2018-11-07T19:48:15.280Z,0.550
2018-11-07T19:51:15.723Z,0.375
2018-11-07T19:54:15.864Z,1.363
2018-11-07T19:57:15.218Z,0.512
2018-11-07T20:00:15.311Z,0.425
2018-11-07T20:03:15.471Z,4.088
2018-11-07T20:06:15.589Z,0.700
2018-11-07T20:09:15.607Z,0.863
2018-11-07T20:12:16.017Z,0.725
2018-11-07T20:15:15.547Z,0.475
2018-11-07T20:18:15.796Z,0.738
2018-11-07T20:21:15.892Z,1.188
2018-11-07T20:24:15.089Z,2.837
2018-11-07T20:27:15.091Z,1.700
2018-11-07T20:30:15.218Z,1.325
2018-11-07T20:33:15.468Z,7.938
2018-11-07T20:36:15.676Z,4.275
2018-11-07T20:39:15.142Z,0.625
2018-11-07T20:42:15.234Z,1.562
2018-11-07T20:45:15.760Z,1.175
2018-11-07T20:48:15.946Z,1.350
2018-11-07T20:51:15.050Z,0.375
2018-11-07T20:54:15.239Z,0.737
2018-11-07T20:57:15.408Z,0.688
2018-11-07T21:00:15.686Z,0.887
2018-11-07T21:03:15.683Z,0.812
2018-11-07T21:06:16.217Z,1.200
2018-11-07T21:09:15.454Z,1.962
2018-11-07T21:12:15.467Z,0.500
2018-11-07T21:15:15.363Z,1.700
2018-11-07T21:18:15.766Z,0.925
2018-11-07T21:21:15.228Z,1.212
2018-11-07T21:24:15.360Z,0.912
2018-11-07T21:27:15.538Z,1.488
2018-11-07T21:30:15.520Z,0.650
2018-11-07T21:33:15.772Z,1.812
2018-11-07T21:36:15.945Z,0.987
2018-11-07T21:39:15.791Z,0.788
2018-11-07T21:42:15.204Z,1.050
2018-11-07T21:45:15.284Z,1.337
2018-11-07T21:48:15.532Z,0.788
2018-11-07T21:51:15.175Z,0.238
2018-11-07T21:54:15.520Z,3.562
2018-11-07T21:57:15.908Z,0.825
2018-11-07T22:00:15.262Z,1.113
2018-11-07T22:03:15.512Z,1.938
2018-11-07T22:06:16.063Z,2.000
2018-11-07T22:09:15.795Z,0.750
2018-11-07T22:12:15.102Z,1.237
2018-11-07T22:15:15.215Z,1.663
2018-11-07T22:18:15.536Z,1.175
2018-11-07T22:21:15.623Z,1.088
2018-11-07T22:24:15.733Z,0.812
2018-11-07T22:27:15.804Z,1.013
2018-11-07T22:30:15.130Z,0.825
2018-11-07T22:33:15.794Z,1.663
2018-11-07T22:36:14.991Z,2.225
2018-11-07T22:39:15.872Z,2.413
2018-11-07T22:42:15.874Z,2.287
2018-11-07T22:45:15.338Z,1.038
2018-11-07T22:48:15.806Z,1.875
2018-11-07T22:51:15.436Z,1.812
2018-11-07T22:54:15.260Z,1.175
2018-11-07T22:57:15.491Z,5.062
2018-11-07T23:00:15.681Z,4.025
2018-11-07T23:03:15.263Z,2.212
2018-11-07T23:06:15.525Z,7.812
2018-11-07T23:09:15.785Z,3.100
2018-11-07T23:12:15.929Z,1.575
2018-11-07T23:15:15.732Z,1.925
2018-11-07T23:18:15.701Z,2.587
2018-11-07T23:21:15.900Z,2.637
2018-11-07T23:24:15.107Z,1.137
2018-11-07T23:27:15.161Z,1.863
2018-11-07T23:30:15.609Z,1.988
2018-11-07T23:33:15.599Z,2.250
2018-11-07T23:36:15.706Z,1.988
2018-11-07T23:39:15.802Z,1.388
2018-11-07T23:42:15.757Z,1.413
2018-11-07T23:45:15.726Z,3.438
2018-11-07T23:48:14.973Z,1.788
2018-11-07T23:51:15.150Z,0.775
2018-11-07T23:54:15.255Z,0.650
2018-11-07T23:57:15.714Z,0.650
